Terminal Aerodrome Forecast
Issued by NWS Glasgow, MT

Current Version | Previous Version | Text Only | Print | Product List | Glossary On
Versions: 1 2 3 4 5 6 7 8 9 10 11 12 13 14 15 16
000
FTUS45 KGGW 201700
TAFGGW
TAF
KGGW 201720Z 2018/2118 26008KT P6SM SCT060
     FM210300 00000KT 6SM BR SCT180
     FM211200 VRB05KT 6SM -FZRAPL BKN015 BKN090=

USA.gov is the U.S. government's official web portal to all federal, state and local government web resources and services.